Time;durP1;ratioP1;P1;durP2;ratioP2;P2;SDS_P1;SDS_P2;PMS_P1;PMS_P2;Temp;Humidity;BMP_temperature;BMP_pressure;BME280_temperature;BME280_humidity;BME280_pressure;Samples;Min_cycle;Max_cycle;Signal;HPM_P1;HPM_P2
2022/03/12 00:01:54;;;;;;;12.73;5.68;;;;;;;;;;5038593;28;20079;-49
2022/03/12 00:04:22;;;;;;;11.85;4.95;;;6.60;94.70;;;;;;5026940;28;20068;-47
2022/03/12 00:06:49;;;;;;;10.40;5.20;;;6.70;94.70;;;;;;5025729;28;20597;-50
2022/03/12 00:09:15;;;;;;;11.90;5.47;;;;;;;;;;5040571;28;20096;-50
2022/03/12 00:11:51;;;;;;;11.20;5.72;;;;;;;;;;5044001;28;20052;-50
2022/03/12 00:14:22;;;;;;;12.57;6.15;;;6.70;95.70;;;;;;5041238;28;20045;-51
2022/03/12 00:16:48;;;;;;;10.43;5.73;;;;;;;;;;5042570;28;20045;-51
2022/03/12 00:19:14;;;;;;;13.55;5.53;;;;;;;;;;5042648;28;20612;-50
2022/03/12 00:21:42;;;;;;;10.85;5.15;;;6.40;94.70;;;;;;5037495;28;20132;-47
2022/03/12 00:24:11;;;;;;;13.02;5.55;;;6.50;94.50;;;;;;5038090;28;20586;-49
2022/03/12 00:26:40;;;;;;;9.50;4.72;;;;;;;;;;5034281;28;20115;-50
2022/03/12 00:29:09;;;;;;;10.30;5.15;;;;;;;;;;5038396;28;20414;-48
2022/03/12 00:31:35;;;;;;;8.10;4.90;;;;;;;;;;5035914;28;20131;-46
2022/03/12 00:34:01;;;;;;;8.70;5.22;;;;;;;;;;5036042;28;20044;-52
2022/03/12 00:36:27;;;;;;;8.75;5.20;;;;;;;;;;5029949;28;20045;-51
2022/03/12 00:38:54;;;;;;;8.48;5.10;;;;;;;;;;5032815;28;20141;-46
2022/03/12 00:41:20;;;;;;;9.48;5.05;;;;;;;;;;5035252;28;20059;-50
2022/03/12 00:43:46;;;;;;;10.05;5.38;;;;;;;;;;5036340;28;20409;-51
2022/03/12 00:46:14;;;;;;;12.02;5.40;;;6.50;95.20;;;;;;5037428;28;20036;-50
2022/03/12 00:48:40;;;;;;;9.25;5.13;;;;;;;;;;5030060;28;20860;-46
2022/03/12 00:51:10;;;;;;;16.60;6.47;;;6.40;94.40;;;;;;5034129;28;20124;-50
2022/03/12 00:53:36;;;;;;;11.45;6.97;;;6.40;94.80;;;;;;5034892;28;20441;-50
2022/03/12 00:56:03;;;;;;;10.52;5.22;;;6.60;95.00;;;;;;5039226;28;20033;-48
2022/03/12 00:58:29;;;;;;;11.40;4.95;;;;;;;;;;5016766;28;20116;-51
2022/03/12 01:00:57;;;;;;;8.98;5.60;;;6.50;95.50;;;;;;5031661;28;20041;-52
2022/03/12 01:03:23;;;;;;;9.77;5.95;;;;;;;;;;5036194;28;20045;-51
2022/03/12 01:05:49;;;;;;;9.18;5.63;;;;;;;;;;5036395;28;20045;-48
2022/03/12 01:08:18;;;;;;;11.35;5.10;;;6.30;96.10;;;;;;5037340;28;20037;-47
2022/03/12 01:10:44;;;;;;;8.43;5.25;;;6.50;95.00;;;;;;5040699;28;20073;-49
2022/03/12 01:13:11;;;;;;;9.93;5.20;;;;;;;;;;5034224;28;20071;-48
2022/03/12 01:15:37;;;;;;;9.55;5.40;;;6.50;95.00;;;;;;5036127;28;20033;-52
2022/03/12 01:18:03;;;;;;;11.70;5.78;;;;;;;;;;5027998;28;20044;-49
2022/03/12 01:20:30;;;;;;;8.38;5.35;;;;;;;;;;5037607;28;20045;-51
2022/03/12 01:22:57;;;;;;;10.38;5.43;;;6.50;95.20;;;;;;5037438;28;20402;-51
2022/03/12 01:25:26;;;;;;;12.60;5.88;;;6.60;95.20;;;;;;5033727;28;20052;-52
2022/03/12 01:27:52;;;;;;;10.48;5.25;;;6.50;95.10;;;;;;5034527;28;20052;-49
2022/03/12 01:30:26;;;;;;;10.43;5.28;;;6.40;95.10;;;;;;5037694;28;20047;-50
2022/03/12 01:32:52;;;;;;;11.82;5.20;;;6.60;95.10;;;;;;5029968;28;20037;-50
2022/03/12 01:35:18;;;;;;;11.45;5.57;;;;;;;;;;5030373;28;20198;-48
2022/03/12 01:37:44;;;;;;;10.80;6.35;;;;;;;;;;5028765;28;20044;-51
2022/03/12 01:40:13;;;;;;;9.70;5.50;;;6.60;95.00;;;;;;5034887;28;20045;-50
2022/03/12 01:42:39;;;;;;;10.15;6.32;;;;;;;;;;5016522;28;20056;-50
2022/03/12 01:45:09;;;;;;;11.02;5.60;;;6.50;94.90;;;;;;5036316;28;20060;-48
2022/03/12 01:47:35;;;;;;;9.85;5.20;;;;;;;;;;5030870;28;20041;-45
2022/03/12 01:50:01;;;;;;;9.07;5.38;;;6.60;96.20;;;;;;5029793;28;20045;-46
2022/03/12 01:52:29;;;;;;;11.30;5.53;;;6.60;94.90;;;;;;5034219;28;20536;-47
2022/03/12 01:54:56;;;;;;;8.48;4.75;;;;;;;;;;5027878;28;20040;-46
2022/03/12 01:57:22;;;;;;;10.27;5.60;;;;;;;;;;5034387;28;20037;-51
2022/03/12 01:59:51;;;;;;;11.77;4.85;;;;;;;;;;5040152;28;20040;-48
2022/03/12 02:02:18;;;;;;;8.55;5.38;;;;;;;;;;5035400;28;20037;-47
2022/03/12 02:04:51;;;;;;;8.52;5.28;;;6.70;94.00;;;;;;5012356;28;20401;-49
2022/03/12 02:07:17;;;;;;;15.43;5.47;;;;;;;;;;5016358;28;20343;-50
2022/03/12 02:09:46;;;;;;;10.82;5.30;;;6.90;94.40;;;;;;5029560;28;20391;-46
2022/03/12 02:12:12;;;;;;;9.05;5.55;;;;;;;;;;5036004;28;20041;-50
2022/03/12 02:14:38;;;;;;;9.82;5.00;;;;;;;;;;5032269;28;20046;-46
2022/03/12 02:17:08;;;;;;;11.63;5.05;;;6.90;94.30;;;;;;5033232;28;20036;-51
2022/03/12 02:19:34;;;;;;;12.00;5.65;;;;;;;;;;5031243;28;20505;-46
2022/03/12 02:22:08;;;;;;;11.63;5.40;;;7.00;95.50;;;;;;5033858;28;20170;-48
2022/03/12 02:24:37;;;;;;;25.65;6.78;;;6.90;94.50;;;;;;5022325;28;20091;-47
2022/03/12 02:27:05;;;;;;;11.50;5.80;;;6.80;94.50;;;;;;5034458;28;20048;-46
2022/03/12 02:29:32;;;;;;;11.23;6.28;;;;;;;;;;5021692;28;20055;-47
2022/03/12 02:32:03;;;;;;;9.55;5.50;;;6.90;94.50;;;;;;5036853;28;20097;-47
2022/03/12 02:34:38;;;;;;;10.82;6.15;;;6.80;94.60;;;;;;5033500;28;20041;-51
2022/03/12 02:37:05;;;;;;;10.90;5.80;;;6.90;95.70;;;;;;5034307;28;20064;-47
2022/03/12 02:39:31;;;;;;;9.25;5.40;;;;;;;;;;5031892;28;20174;-47
2022/03/12 02:42:00;;;;;;;9.30;5.20;;;6.80;94.70;;;;;;5038259;28;20051;-46
2022/03/12 02:44:27;;;;;;;8.85;5.00;;;6.90;94.20;;;;;;5041756;28;20695;-49
2022/03/12 02:47:14;;;;;;;8.88;5.43;;;6.80;94.00;;;;;;5032470;28;20252;-47
2022/03/12 02:50:06;;;;;;;11.23;5.90;;;6.60;94.90;;;;;;5035602;28;20052;-47
2022/03/12 02:52:41;;;;;;;10.27;5.60;;;6.70;94.90;;;;;;5031553;28;20053;-51
2022/03/12 02:55:10;;;;;;;10.10;5.90;;;6.60;95.00;;;;;;5032656;28;20052;-46
2022/03/12 02:57:39;;;;;;;16.42;5.72;;;6.70;95.20;;;;;;5025984;28;20111;-47
2022/03/12 03:00:08;;;;;;;9.10;5.82;;;6.50;95.00;;;;;;5029982;28;20044;-46
2022/03/12 03:02:39;;;;;;;14.93;5.90;;;6.60;95.40;;;;;;5014495;28;20455;-51
2022/03/12 03:07:59;;;;;;;12.38;5.50;;;6.70;96.40;;;;;;5036820;28;20045;-47
2022/03/12 03:10:39;;;;;;;8.95;5.50;;;6.70;94.70;;;;;;5034183;28;20029;-47
2022/03/12 03:13:38;;;;;;;9.30;5.50;;;6.60;94.50;;;;;;5026280;28;20049;-45
2022/03/12 03:16:25;;;;;;;8.55;5.43;;;6.60;96.20;;;;;;4966219;28;20102;-46
2022/03/12 03:18:53;;;;;;;10.77;5.50;;;6.80;95.20;;;;;;4959837;28;20048;-48
2022/03/12 03:21:21;;;;;;;9.07;5.18;;;6.70;95.10;;;;;;4965373;28;20031;-45
2022/03/12 03:23:47;;;;;;;10.77;5.75;;;;;;;;;;4969324;28;20046;-45
2022/03/12 03:26:18;;;;;;;10.05;5.18;;;6.80;94.90;;;;;;4975802;28;20070;-48
2022/03/12 03:28:44;;;;;;;10.13;5.50;;;;;;;;;;4961173;28;20508;-46
2022/03/12 03:31:11;;;;;;;10.40;5.97;;;;;;;;;;4979146;28;20034;-49
2022/03/12 03:33:37;;;;;;;14.30;6.43;;;;;;;;;;4964542;28;20050;-47
2022/03/12 03:36:03;;;;;;;11.88;5.57;;;7.00;95.30;;;;;;4964497;28;20133;-47
2022/03/12 03:38:29;;;;;;;10.05;5.68;;;6.60;96.40;;;;;;4960291;28;20082;-45
2022/03/12 03:40:55;;;;;;;9.98;5.30;;;;;;;;;;4966989;28;20043;-47
2022/03/12 03:43:24;;;;;;;10.80;5.97;;;6.70;95.20;;;;;;4968459;28;20602;-48
2022/03/12 03:45:52;;;;;;;8.30;5.15;;;6.60;95.40;;;;;;4972487;28;20516;-46
2022/03/12 03:48:20;;;;;;;10.57;5.20;;;6.70;96.40;;;;;;4969417;28;20042;-46
2022/03/12 03:50:48;;;;;;;8.77;5.55;;;6.80;95.20;;;;;;4972193;28;20042;-47
2022/03/12 03:53:16;;;;;;;9.25;5.78;;;6.70;96.20;;;;;;5032441;28;20049;-45
2022/03/12 03:55:45;;;;;;;8.73;5.30;;;6.90;95.20;;;;;;5025743;28;20140;-48
2022/03/12 03:58:12;;;;;;;9.20;6.20;;;6.80;96.40;;;;;;5039853;28;20527;-47
2022/03/12 04:00:39;;;;;;;9.10;5.13;;;;;;;;;;5029325;28;20095;-45
2022/03/12 04:03:04;;;;;;;14.70;6.20;;;6.50;96.40;;;;;;5038056;28;20045;-46
2022/03/12 04:05:36;;;;;;;9.20;5.43;;;6.60;96.30;;;;;;5034748;28;20049;-45
2022/03/12 04:08:07;;;;;;;9.63;5.43;;;6.50;95.50;;;;;;5037997;28;20039;-47
2022/03/12 04:10:34;;;;;;;9.00;5.60;;;6.70;95.30;;;;;;5040902;28;20044;-45
2022/03/12 04:13:01;;;;;;;9.00;5.70;;;6.50;95.20;;;;;;5037177;28;20095;-49
2022/03/12 04:15:28;;;;;;;9.18;5.70;;;;;;;;;;5042932;28;20493;-50
2022/03/12 04:17:54;;;;;;;10.00;5.90;;;;;;;;;;5036304;28;20517;-51
2022/03/12 04:20:22;;;;;;;13.13;6.10;;;6.30;95.80;;;;;;5040542;28;20111;-45
2022/03/12 04:22:50;;;;;;;12.10;6.15;;;6.30;95.90;;;;;;5031668;28;20032;-50
2022/03/12 04:25:17;;;;;;;15.20;5.88;;;6.40;95.70;;;;;;5036264;28;20155;-51
2022/03/12 04:27:45;;;;;;;13.40;6.57;;;6.30;95.70;;;;;;5027435;28;20052;-49
2022/03/12 04:30:12;;;;;;;13.60;5.95;;;6.50;96.80;;;;;;5014064;28;20068;-49
2022/03/12 04:32:39;;;;;;;8.73;5.50;;;6.30;95.70;;;;;;5039518;28;20616;-50
2022/03/12 04:35:07;;;;;;;9.85;5.50;;;6.40;95.90;;;;;;5023064;28;20417;-47
2022/03/12 04:37:34;;;;;;;14.10;5.43;;;;;;;;;;5035463;28;20059;-51
2022/03/12 04:40:01;;;;;;;12.48;5.63;;;;;;;;;;5024494;28;20107;-50
2022/03/12 04:42:27;;;;;;;10.40;5.70;;;;;;;;;;5036619;28;20052;-46
2022/03/12 04:44:53;;;;;;;11.65;5.88;;;;;;;;;;5037270;28;20132;-52
2022/03/12 04:47:19;;;;;;;12.10;5.40;;;;;;;;;;5036789;28;20096;-45
2022/03/12 04:49:47;;;;;;;12.35;5.97;;;6.30;96.40;;;;;;5034317;28;20088;-45
2022/03/12 04:52:18;;;;;;;14.45;6.50;;;6.20;97.50;;;;;;5023653;28;20088;-48
2022/03/12 04:54:44;;;;;;;9.95;5.93;;;;;;;;;;5039498;28;20103;-49
2022/03/12 04:57:10;;;;;;;9.40;5.50;;;6.00;97.50;;;;;;5034841;28;20048;-48
2022/03/12 04:59:36;;;;;;;11.50;5.85;;;;;;;;;;5031823;28;20555;-49
2022/03/12 05:02:03;;;;;;;11.82;5.80;;;;;;;;;;5035766;28;20033;-47
2022/03/12 05:04:30;;;;;;;13.40;6.22;;;;;;;;;;5038400;28;20552;-47
2022/03/12 05:06:57;;;;;;;11.63;6.28;;;5.90;96.70;;;;;;5035824;28;20044;-46
2022/03/12 05:09:23;;;;;;;12.88;6.03;;;;;;;;;;5036192;28;20133;-46
2022/03/12 05:11:50;;;;;;;10.13;5.47;;;6.00;97.00;;;;;;5036036;28;20041;-45
2022/03/12 05:14:17;;;;;;;12.00;5.82;;;;;;;;;;5028813;28;20124;-47
2022/03/12 05:16:48;;;;;;;12.13;5.80;;;6.10;96.70;;;;;;5032564;28;20402;-45
2022/03/12 05:19:15;;;;;;;9.60;5.82;;;;;;;;;;5031398;28;20190;-51
2022/03/12 05:21:44;;;;;;;9.50;5.95;;;6.00;97.30;;;;;;5039226;28;20072;-45
2022/03/12 05:24:11;;;;;;;10.13;5.97;;;;;;;;;;5036018;28;20079;-46
2022/03/12 05:26:37;;;;;;;12.70;6.18;;;;;;;;;;5030593;28;20521;-45
2022/03/12 05:29:03;;;;;;;10.18;5.70;;;;;;;;;;5039685;28;20045;-47
2022/03/12 05:31:30;;;;;;;11.48;6.60;;;;;;;;;;5037300;28;20038;-47
2022/03/12 05:33:57;;;;;;;13.63;6.05;;;;;;;;;;5035594;28;20037;-45
2022/03/12 05:36:23;;;;;;;135.18;123.18;;;;;;;;;;5038521;28;20045;-45
2022/03/12 05:38:50;;;;;;;442.85;402.30;;;5.70;99.50;;;;;;5037870;28;20052;-45
2022/03/12 05:41:16;;;;;;;793.20;716.20;;;;;;;;;;5033466;28;20041;-47
2022/03/12 05:43:46;;;;;;;473.20;440.30;;;5.70;99.90;;;;;;5035714;28;20513;-44
2022/03/12 05:46:15;;;;;;;370.77;346.42;;;5.60;99.90;;;;;;5031804;28;20136;-49
2022/03/12 05:48:45;;;;;;;438.73;409.35;;;5.60;99.90;;;;;;5036165;28;20055;-47
2022/03/12 05:51:11;;;;;;;612.50;563.88;;;;;;;;;;5035419;28;20033;-45
2022/03/12 05:53:37;;;;;;;280.90;263.85;;;;;;;;;;5033722;28;20623;-46
2022/03/12 05:56:06;;;;;;;219.98;207.23;;;5.50;99.90;;;;;;5034255;28;20052;-47
2022/03/12 05:58:39;;;;;;;295.33;277.23;;;;;;;;;;5014372;28;20151;-45
2022/03/12 06:01:06;;;;;;;566.70;519.78;;;;;;;;;;5030745;28;20443;-44
2022/03/12 06:03:33;;;;;;;800.75;720.30;;;5.60;99.90;;;;;;5030633;28;20470;-47
2022/03/12 06:05:59;;;;;;;1517.72;999.90;;;;;;;;;;5033764;28;20106;-45
2022/03/12 06:08:27;;;;;;;1999.90;999.90;;;5.60;99.90;;;;;;5030102;28;20263;-47
2022/03/12 06:10:55;;;;;;;1999.90;999.90;;;5.70;99.90;;;;;;5029577;28;20045;-46
2022/03/12 06:13:28;;;;;;;1999.90;840.65;;;5.60;99.90;;;;;;5028112;28;20045;-47
2022/03/12 06:15:58;;;;;;;1960.40;822.40;;;;;;;;;;5024517;28;20041;-47
2022/03/12 06:18:33;;;;;;;741.33;361.90;;;5.30;99.90;;;;;;5032228;28;20037;-47
2022/03/12 06:20:59;;;;;;;1769.10;649.70;;;5.50;99.90;;;;;;5036091;28;20390;-47
2022/03/12 06:23:28;;;;;;;1081.75;593.65;;;;;;;;;;5032765;28;20072;-50
2022/03/12 06:25:56;;;;;;;531.05;224.20;;;5.60;99.90;;;;;;5036414;28;20045;-50
2022/03/12 06:28:22;;;;;;;680.20;360.98;;;;;;;;;;5029853;28;20227;-47
2022/03/12 06:30:49;;;;;;;487.40;246.77;;;5.70;99.90;;;;;;5037981;28;20052;-50
2022/03/12 06:33:18;;;;;;;884.00;448.63;;;5.50;99.90;;;;;;5029998;28;20041;-50
2022/03/12 06:35:46;;;;;;;1999.90;770.17;;;;;;;;;;5036202;28;20045;-47
2022/03/12 06:38:14;;;;;;;1298.65;539.90;;;;;;;;;;5031379;28;20117;-49
2022/03/12 06:40:42;;;;;;;1999.90;952.78;;;5.70;99.90;;;;;;5038555;28;20049;-45
2022/03/12 06:43:10;;;;;;;1999.90;839.78;;;;;;;;;;5037027;28;20124;-48
2022/03/12 06:45:38;;;;;;;1999.90;999.90;;;5.60;99.90;;;;;;5036398;28;20045;-48
2022/03/12 06:48:04;;;;;;;1999.90;999.90;;;;;;;;;;5031941;28;20049;-49
2022/03/12 06:50:31;;;;;;;1999.90;999.90;;;;;;;;;;5030337;28;20180;-48
2022/03/12 06:52:57;;;;;;;1999.90;999.90;;;;;;;;;;5030856;28;20053;-48
2022/03/12 06:55:27;;;;;;;1999.90;999.90;;;5.80;99.90;;;;;;5032529;28;20095;-48
2022/03/12 06:57:54;;;;;;;1999.90;999.90;;;;;;;;;;5035319;28;20037;-47
2022/03/12 07:00:26;;;;;;;1999.90;999.90;;;5.80;99.40;;;;;;5033833;28;20041;-47
2022/03/12 07:02:52;;;;;;;;;;;7.70;99.90;;;;;;5017358;28;20053;-51
2022/03/12 07:05:18;;;;;;;1999.90;999.90;;;;;;;;;;5032512;28;19921;-48
2022/03/12 07:07:46;;;;;;;1999.90;999.90;;;5.90;99.40;;;;;;5037896;28;20502;-49
2022/03/12 07:10:12;;;;;;;1163.63;920.22;;;;;;;;;;5034428;28;20166;-49
2022/03/12 07:12:38;;;;;;;1999.90;995.17;;;;;;;;;;5034165;28;20048;-50
2022/03/12 07:15:05;;;;;;;1319.95;952.15;;;;;;;;;;5040341;28;20041;-47
2022/03/12 07:17:31;;;;;;;1338.43;899.50;;;6.70;99.10;;;;;;5032386;28;20038;-49
2022/03/12 07:19:57;;;;;;;1999.90;999.90;;;;;;;;;;5028313;28;20095;-47
2022/03/12 07:22:23;;;;;;;1999.90;999.90;;;7.70;99.90;;;;;;5014654;28;20034;-49
2022/03/12 07:24:49;;;;;;;1730.72;912.60;;;8.20;99.20;;;;;;5032250;28;20049;-46
2022/03/12 07:27:15;;;;;;;1162.40;889.40;;;9.20;98.60;;;;;;5027434;28;20034;-48
2022/03/12 07:29:40;;;;;;;1532.90;908.80;;;9.10;97.80;;;;;;5030242;28;20072;-51
2022/03/12 07:32:08;;;;;;;906.58;806.40;;;9.80;96.60;;;;;;5038949;28;20037;-47
2022/03/12 07:34:34;;;;;;;1546.43;894.70;;;11.40;96.80;;;;;;5040970;28;20044;-46
2022/03/12 07:37:00;;;;;;;817.08;741.00;;;10.40;96.20;;;;;;5031259;28;20041;-51
2022/03/12 07:39:26;;;;;;;830.80;750.25;;;10.30;96.10;;;;;;5030439;28;20569;-50
2022/03/12 07:41:52;;;;;;;703.10;639.90;;;10.20;96.00;;;;;;5018683;28;20041;-46
2022/03/12 07:44:17;;;;;;;796.10;712.47;;;9.60;96.10;;;;;;5038719;28;20044;-51
2022/03/12 07:46:46;;;;;;;540.80;500.42;;;9.50;97.50;;;;;;5038939;28;20048;-52
2022/03/12 07:49:13;;;;;;;648.35;596.17;;;10.30;97.20;;;;;;5034289;28;20037;-49
2022/03/12 07:51:43;;;;;;;680.10;623.50;;;11.00;96.70;;;;;;5034841;28;20068;-52
2022/03/12 07:54:13;;;;;;;788.42;716.20;;;10.50;96.10;;;;;;5038218;28;20045;-48
2022/03/12 07:56:39;;;;;;;876.65;770.88;;;11.10;95.30;;;;;;5015161;28;20056;-49
2022/03/12 07:59:05;;;;;;;912.60;708.40;;;11.70;95.20;;;;;;5037296;28;20372;-47
2022/03/12 08:01:33;;;;;;;784.30;654.33;;;11.30;94.90;;;;;;5037194;28;20099;-48
2022/03/12 08:04:01;;;;;;;940.35;500.13;;;12.60;95.40;;;;;;5036492;28;20045;-46
2022/03/12 08:06:27;;;;;;;68.78;61.20;;;12.10;94.90;;;;;;5036360;28;20115;-46
2022/03/12 08:08:53;;;;;;;453.55;326.13;;;11.80;95.10;;;;;;5025072;28;20532;-45
2022/03/12 08:11:25;;;;;;;228.95;150.27;;;12.40;94.80;;;;;;5030661;28;20033;-49
2022/03/12 08:13:51;;;;;;;14.18;7.43;;;13.40;94.30;;;;;;5026707;28;20037;-48
2022/03/12 08:16:17;;;;;;;11.23;7.25;;;12.70;94.30;;;;;;5036576;28;20041;-48
2022/03/12 08:18:45;;;;;;;10.13;7.07;;;11.90;94.50;;;;;;5035453;28;20030;-47
2022/03/12 08:21:11;;;;;;;10.63;7.30;;;11.80;95.10;;;;;;5038712;28;20136;-48
2022/03/12 08:23:38;;;;;;;11.02;7.43;;;11.20;95.60;;;;;;5036804;28;20037;-49
2022/03/12 08:26:06;;;;;;;11.07;7.70;;;11.00;95.80;;;;;;5015215;28;20042;-49
2022/03/12 08:28:34;;;;;;;14.25;7.47;;;10.90;96.50;;;;;;5029377;28;20069;-49
2022/03/12 08:31:01;;;;;;;12.00;7.60;;;10.80;96.40;;;;;;5029036;28;20043;-46
2022/03/12 08:33:28;;;;;;;13.60;7.75;;;10.80;96.30;;;;;;5033951;28;20096;-47
2022/03/12 08:35:56;;;;;;;13.65;7.35;;;10.70;97.20;;;;;;5035960;28;20488;-51
2022/03/12 08:38:22;;;;;;;15.45;8.13;;;11.10;96.80;;;;;;5027525;28;20038;-48
2022/03/12 08:40:48;;;;;;;12.90;7.38;;;11.60;97.00;;;;;;5036886;28;20409;-49
2022/03/12 08:43:16;;;;;;;12.30;7.30;;;12.50;97.10;;;;;;5041113;28;20136;-49
2022/03/12 08:45:41;;;;;;;12.25;7.38;;;11.10;96.20;;;;;;5037336;28;20086;-47
2022/03/12 08:48:07;;;;;;;13.48;6.75;;;11.20;96.40;;;;;;5031859;28;20037;-48
2022/03/12 08:50:33;;;;;;;13.55;7.85;;;11.00;96.60;;;;;;5027098;28;20397;-49
2022/03/12 08:52:59;;;;;;;13.95;7.47;;;10.90;96.90;;;;;;5030976;28;20073;-49
2022/03/12 08:55:25;;;;;;;12.40;7.38;;;11.70;97.20;;;;;;5035111;28;20323;-50
2022/03/12 08:57:53;;;;;;;10.18;7.20;;;11.40;97.30;;;;;;5037455;28;20037;-54
2022/03/12 09:00:20;;;;;;;11.52;7.03;;;12.80;98.00;;;;;;5034394;28;20566;-51
2022/03/12 09:02:47;;;;;;;20.67;7.45;;;10.90;97.80;;;;;;5029943;28;20528;-51
2022/03/12 09:05:14;;;;;;;11.00;7.55;;;11.00;97.80;;;;;;5033488;28;20047;-51
2022/03/12 09:07:41;;;;;;;12.52;7.45;;;11.50;97.80;;;;;;5037596;28;20095;-48
2022/03/12 09:10:11;;;;;;;12.13;7.60;;;11.00;97.80;;;;;;5015726;28;20116;-47
2022/03/12 09:12:41;;;;;;;14.73;7.55;;;11.40;97.50;;;;;;5032461;28;20049;-49
2022/03/12 09:15:08;;;;;;;12.13;7.57;;;11.50;97.20;;;;;;5033637;28;20179;-50
2022/03/12 09:17:34;;;;;;;13.73;7.85;;;11.60;97.70;;;;;;5038843;28;20526;-47
2022/03/12 09:20:05;;;;;;;15.85;8.27;;;12.60;98.00;;;;;;5034639;28;20039;-52
2022/03/12 09:22:30;;;;;;;344.80;304.35;;;12.00;97.50;;;;;;5015276;28;21514;-49
2022/03/12 09:24:56;;;;;;;22.25;13.65;;;12.30;97.50;;;;;;5007163;28;20049;-48
2022/03/12 09:27:22;;;;;;;12.23;7.30;;;12.60;97.60;;;;;;5035304;28;20051;-48
2022/03/12 09:29:48;;;;;;;31.38;28.05;;;12.00;97.70;;;;;;5031451;28;20438;-50
2022/03/12 09:32:13;;;;;;;362.20;325.52;;;13.10;98.80;;;;;;5037554;28;20065;-52
2022/03/12 09:34:41;;;;;;;854.75;762.72;;;12.00;99.10;;;;;;5032756;28;20062;-51
2022/03/12 09:37:09;;;;;;;664.72;609.80;;;12.20;99.20;;;;;;5036561;28;20154;-51
2022/03/12 09:39:36;;;;;;;776.03;704.67;;;12.10;99.50;;;;;;5008429;28;20040;-49
2022/03/12 09:42:02;;;;;;;683.25;627.90;;;12.10;99.60;;;;;;5033567;28;20134;-51
2022/03/12 09:44:28;;;;;;;812.42;730.13;;;12.30;99.80;;;;;;5037647;28;20510;-51
2022/03/12 09:46:55;;;;;;;813.65;740.80;;;12.50;99.90;;;;;;5031934;28;20068;-51
2022/03/12 09:49:24;;;;;;;681.85;627.85;;;12.60;99.60;;;;;;5033319;28;20529;-46
2022/03/12 09:51:52;;;;;;;919.95;830.15;;;13.60;99.90;;;;;;5031033;28;20049;-48
2022/03/12 09:54:18;;;;;;;1216.55;846.60;;;13.00;99.90;;;;;;5037332;28;20116;-46
2022/03/12 09:56:43;;;;;;;889.80;479.77;;;13.10;99.90;;;;;;5040120;28;20094;-50
2022/03/12 09:59:09;;;;;;;115.32;59.47;;;13.70;99.90;;;;;;5039222;28;20064;-47
2022/03/12 10:01:35;;;;;;;44.72;28.15;;;13.80;99.90;;;;;;5039888;28;20047;-50
2022/03/12 10:04:01;;;;;;;146.48;71.95;;;12.80;99.90;;;;;;5029706;28;20045;-50
2022/03/12 10:06:29;;;;;;;206.13;28.23;;;13.00;99.90;;;;;;5034756;28;20048;-46
2022/03/12 10:08:55;;;;;;;17.35;7.97;;;13.00;99.90;;;;;;5034462;28;20040;-49
2022/03/12 10:11:21;;;;;;;10.10;7.05;;;14.10;99.90;;;;;;5030426;28;20038;-46
2022/03/12 10:13:48;;;;;;;13.75;7.85;;;12.80;99.90;;;;;;5034703;28;20048;-46
2022/03/12 10:16:14;;;;;;;10.35;7.07;;;13.20;99.90;;;;;;5041378;28;20044;-49
2022/03/12 10:18:41;;;;;;;12.52;7.20;;;13.60;99.90;;;;;;5034309;28;20406;-47
2022/03/12 10:21:09;;;;;;;11.13;7.97;;;12.90;99.90;;;;;;5035014;28;20413;-49
2022/03/12 10:23:34;;;;;;;15.52;7.82;;;13.30;99.90;;;;;;5039600;28;20439;-47
2022/03/12 10:26:00;;;;;;;11.55;7.47;;;13.00;99.90;;;;;;5040259;28;20037;-46
2022/03/12 10:28:29;;;;;;;13.02;6.88;;;13.20;99.90;;;;;;5042136;28;20428;-46
2022/03/12 10:30:55;;;;;;;10.63;6.65;;;13.20;99.90;;;;;;5037842;28;20057;-47
2022/03/12 10:33:23;;;;;;;11.50;7.32;;;14.40;99.90;;;;;;5042171;28;20040;-50
2022/03/12 10:35:50;;;;;;;11.55;6.53;;;13.70;99.90;;;;;;5041115;28;20496;-47
2022/03/12 10:38:17;;;;;;;8.95;6.20;;;13.50;99.90;;;;;;5035849;28;20040;-50
2022/03/12 10:40:44;;;;;;;14.55;6.78;;;15.30;99.90;;;;;;5036331;28;20063;-46
2022/03/12 10:43:14;;;;;;;11.18;7.07;;;13.30;99.90;;;;;;5033767;28;20045;-48
2022/03/12 10:45:48;;;;;;;11.20;6.13;;;13.40;99.90;;;;;;5028139;28;20056;-47
2022/03/12 10:48:19;;;;;;;10.75;6.75;;;15.00;99.90;;;;;;5036147;28;20570;-47
2022/03/12 10:50:47;;;;;;;10.40;6.45;;;14.70;99.90;;;;;;5034755;28;20046;-47
2022/03/12 10:53:15;;;;;;;11.90;6.22;;;13.50;99.90;;;;;;5036150;28;20665;-46
2022/03/12 10:55:44;;;;;;;12.25;6.30;;;13.80;99.90;;;;;;5039831;28;20048;-50
2022/03/12 10:58:12;;;;;;;15.48;6.45;;;13.60;99.90;;;;;;5034878;28;20052;-50
2022/03/12 11:00:59;;;;;;;10.60;6.03;;;15.60;99.90;;;;;;5041070;28;20047;-49
2022/03/12 11:03:28;;;;;;;9.73;6.43;;;13.70;99.90;;;;;;5039791;28;20131;-50
2022/03/12 11:05:56;;;;;;;13.45;6.97;;;13.60;99.90;;;;;;5040476;28;20127;-51
2022/03/12 11:08:32;;;;;;;10.82;6.57;;;13.40;99.90;;;;;;5017044;28;20076;-49
2022/03/12 11:11:19;;;;;;;12.85;6.05;;;14.00;99.90;;;;;;5017803;28;20037;-48
2022/03/12 11:13:50;;;;;;;8.48;5.72;;;13.80;99.90;;;;;;5023879;28;20068;-46
2022/03/12 11:16:25;;;;;;;11.02;5.47;;;14.00;99.90;;;;;;5028462;28;20045;-50
2022/03/12 11:19:07;;;;;;;10.85;5.93;;;14.70;99.90;;;;;;5010274;28;20037;-50
2022/03/12 11:21:51;;;;;;;9.18;5.85;;;14.20;99.90;;;;;;5032219;28;20045;-49
2022/03/12 11:24:27;;;;;;;9.23;5.75;;;14.00;99.90;;;;;;5031808;28;20040;-50
2022/03/12 11:26:58;;;;;;;9.02;5.47;;;15.40;99.90;;;;;;5033901;28;20049;-48
2022/03/12 11:29:27;;;;;;;13.15;6.25;;;14.00;99.90;;;;;;5030553;28;20026;-46
2022/03/12 11:32:05;;;;;;;11.93;5.63;;;14.40;99.90;;;;;;5030580;28;20085;-47
2022/03/12 11:34:43;;;;;;;12.63;5.55;;;14.10;99.90;;;;;;5031859;28;20138;-48
2022/03/12 11:37:15;;;;;;;11.70;5.80;;;13.90;99.90;;;;;;5017941;28;20050;-48
2022/03/12 11:39:51;;;;;;;11.73;5.68;;;14.40;99.90;;;;;;5031165;28;20170;-46
2022/03/12 11:42:20;;;;;;;7.97;5.35;;;14.30;99.90;;;;;;5032206;28;20045;-50
2022/03/12 11:45:01;;;;;;;9.00;5.60;;;15.20;99.90;;;;;;5038241;28;20081;-46
2022/03/12 11:47:30;;;;;;;9.53;5.93;;;14.30;99.90;;;;;;5017917;28;20127;-47
2022/03/12 11:49:58;;;;;;;10.23;5.35;;;16.00;99.90;;;;;;5037116;28;20041;-50
2022/03/12 11:52:24;;;;;;;9.30;6.07;;;14.50;99.90;;;;;;5033906;28;20407;-47
2022/03/12 11:54:54;;;;;;;7.78;5.10;;;14.90;99.90;;;;;;5034617;28;20044;-47
2022/03/12 11:57:22;;;;;;;9.63;5.25;;;14.40;99.90;;;;;;5031486;28;20047;-47
2022/03/12 11:59:48;;;;;;;8.27;4.55;;;14.50;99.90;;;;;;5029082;28;20112;-47
2022/03/12 12:02:17;;;;;;;10.32;5.20;;;14.60;99.90;;;;;;5031694;28;20030;-48
2022/03/12 12:04:43;;;;;;;9.15;4.40;;;14.50;99.90;;;;;;5030043;28;20525;-47
2022/03/12 12:07:09;;;;;;;8.73;5.00;;;14.10;99.90;;;;;;5027763;28;20309;-48
2022/03/12 12:09:37;;;;;;;11.48;4.95;;;14.20;99.90;;;;;;5034002;28;20128;-46
2022/03/12 12:12:11;;;;;;;8.77;5.45;;;14.20;99.90;;;;;;5038887;28;20466;-48
2022/03/12 12:14:37;;;;;;;9.32;5.05;;;14.30;99.90;;;;;;5036906;28;20392;-47
2022/03/12 12:17:07;;;;;;;11.40;5.35;;;13.90;99.90;;;;;;5029454;28;20033;-50
2022/03/12 12:19:34;;;;;;;8.65;4.85;;;14.90;99.90;;;;;;5022675;28;20099;-48
2022/03/12 12:22:00;;;;;;;8.00;5.18;;;13.90;99.90;;;;;;5035939;28;20040;-49
2022/03/12 12:24:36;;;;;;;8.88;4.88;;;15.20;99.90;;;;;;5038793;28;20052;-48
2022/03/12 12:27:04;;;;;;;8.48;4.70;;;13.90;99.90;;;;;;5034427;28;20036;-47
2022/03/12 12:29:54;;;;;;;8.45;4.85;;;13.80;99.90;;;;;;5041384;28;20044;-45
2022/03/12 12:32:24;;;;;;;9.88;5.15;;;13.90;99.90;;;;;;5042270;28;20052;-48
2022/03/12 12:34:58;;;;;;;8.77;5.07;;;13.80;99.90;;;;;;5035022;28;20053;-50
2022/03/12 12:37:49;;;;;;;12.60;4.50;;;15.20;99.90;;;;;;5033971;28;20040;-46
2022/03/12 12:40:43;;;;;;;9.80;4.82;;;13.80;99.90;;;;;;5044298;28;20063;-47
2022/03/12 12:43:13;;;;;;;9.63;4.53;;;14.10;99.90;;;;;;5000899;28;20137;-47
2022/03/12 12:45:53;;;;;;;8.00;4.65;;;14.00;99.90;;;;;;5000177;28;20059;-47
2022/03/12 12:48:31;;;;;;;6.93;4.18;;;14.30;99.90;;;;;;5001172;28;20071;-48
2022/03/12 12:51:26;;;;;;;11.70;5.90;;;13.90;99.90;;;;;;4999960;28;20614;-47
2022/03/12 12:53:57;;;;;;;8.63;4.85;;;15.70;99.90;;;;;;5000297;28;20041;-47
2022/03/12 12:56:39;;;;;;;8.80;4.80;;;16.20;99.90;;;;;;5000145;28;20569;-47
2022/03/12 12:59:10;;;;;;;7.80;4.45;;;14.00;99.90;;;;;;4998057;28;20046;-50
2022/03/12 13:01:47;;;;;;;9.27;5.28;;;14.00;99.90;;;;;;5000006;28;20495;-45
2022/03/12 13:04:16;;;;;;;9.80;4.97;;;14.20;99.90;;;;;;5000626;28;20049;-49
2022/03/12 13:06:52;;;;;;;9.05;5.35;;;14.40;99.90;;;;;;5000688;28;20137;-49
2022/03/12 13:09:44;;;;;;;9.50;4.88;;;14.30;99.90;;;;;;5000455;28;20070;-49
2022/03/12 13:12:12;;;;;;;7.00;4.22;;;14.50;99.90;;;;;;4999344;28;20849;-48